createdAt,value
2022-08-25T00:01:58.368Z,100844.56
2022-08-25T00:04:26.320Z,100839.63
2022-08-25T00:06:58.263Z,100847.22
2022-08-25T00:09:27.770Z,100837.03
2022-08-25T00:11:55.114Z,100841.97
2022-08-25T00:14:25.374Z,100843.75
2022-08-25T00:16:52.195Z,100849.69
2022-08-25T00:19:24.750Z,100850.06
2022-08-25T00:21:51.809Z,100847.31
2022-08-25T00:24:20.860Z,100844.44
2022-08-25T00:26:51.127Z,100847.75
2022-08-25T00:29:17.968Z,100840.72
2022-08-25T00:31:45.584Z,100849.63
2022-08-25T00:34:19.532Z,100836.84
2022-08-25T00:36:47.230Z,100842.47
2022-08-25T00:39:14.124Z,100853.78
2022-08-25T00:41:42.775Z,100844.03
2022-08-25T00:44:18.354Z,100842.44
2022-08-25T00:46:51.738Z,100847.69
2022-08-25T00:49:27.284Z,100842.88
2022-08-25T00:51:59.026Z,100843.50
2022-08-25T00:54:30.697Z,100851.28
2022-08-25T00:56:59.256Z,100853.06
2022-08-25T00:59:27.124Z,100846.81
2022-08-25T01:01:54.739Z,100849.34
2022-08-25T01:04:21.567Z,100846.81
2022-08-25T01:06:48.917Z,100856.16
2022-08-25T01:09:16.357Z,100844.94
2022-08-25T01:11:44.852Z,100841.56
2022-08-25T01:14:15.009Z,100837.34
2022-08-25T01:16:43.772Z,100835.53
2022-08-25T01:19:15.304Z,100839.81
2022-08-25T01:21:52.764Z,100829.28
2022-08-25T01:24:40.996Z,100835.13
2022-08-25T01:27:09.087Z,100838.72
2022-08-25T01:29:36.828Z,100833.75
2022-08-25T01:32:07.022Z,100830.31
2022-08-25T01:34:36.577Z,100833.63
2022-08-25T01:37:04.736Z,100842.59
2022-08-25T01:39:33.972Z,100829.69
2022-08-25T01:42:06.318Z,100835.41
2022-08-25T01:44:35.923Z,100836.03
2022-08-25T01:47:03.510Z,100827.75
2022-08-25T01:49:30.165Z,100824.94
2022-08-25T01:52:01.866Z,100830.28
2022-08-25T01:54:28.335Z,100839.25
2022-08-25T01:56:55.561Z,100834.31
2022-08-25T01:59:24.326Z,100842.56
2022-08-25T02:01:51.831Z,100841.75
2022-08-25T02:04:32.306Z,100847.00
2022-08-25T02:07:00.717Z,100847.84
2022-08-25T02:09:27.462Z,100846.75
2022-08-25T02:11:54.172Z,100842.19
2022-08-25T02:14:20.982Z,100842.88
2022-08-25T02:16:50.806Z,100843.75
2022-08-25T02:19:18.577Z,100844.41
2022-08-25T02:21:45.153Z,100847.41
2022-08-25T02:24:12.075Z,100844.53
2022-08-25T02:26:38.903Z,100844.03
2022-08-25T02:29:07.504Z,100838.38
2022-08-25T02:31:34.186Z,100834.38
2022-08-25T02:34:02.049Z,100836.63
2022-08-25T02:36:29.057Z,100831.56
2022-08-25T02:38:55.550Z,100829.19
2022-08-25T02:41:27.749Z,100842.69
2022-08-25T02:43:59.191Z,100838.31
2022-08-25T02:46:25.839Z,100842.38
2022-08-25T02:48:53.280Z,100837.00
2022-08-25T02:51:22.464Z,100835.06
2022-08-25T02:53:49.979Z,100835.88
2022-08-25T02:56:18.478Z,100826.66
2022-08-25T02:58:46.504Z,100829.19
2022-08-25T03:01:14.370Z,100829.63
2022-08-25T03:03:42.181Z,100822.84
2022-08-25T03:06:13.107Z,100819.44
2022-08-25T03:08:40.277Z,100818.38
2022-08-25T03:11:06.862Z,100822.09
2022-08-25T03:13:33.457Z,100829.28
2022-08-25T03:16:00.458Z,100822.94
2022-08-25T03:18:27.621Z,100820.78
2022-08-25T03:20:54.967Z,100822.19
2022-08-25T03:23:21.559Z,100821.50
2022-08-25T03:26:06.292Z,100819.50
2022-08-25T03:28:33.206Z,100813.66
2022-08-25T03:31:01.293Z,100814.59
2022-08-25T03:33:31.471Z,100810.81
2022-08-25T03:35:58.135Z,100807.25
2022-08-25T03:38:25.846Z,100811.94
2022-08-25T03:40:53.175Z,100806.19
2022-08-25T03:43:20.209Z,100813.34
2022-08-25T03:45:47.930Z,100807.34
2022-08-25T03:48:16.721Z,100808.25
2022-08-25T03:50:52.227Z,100813.03
2022-08-25T03:53:19.915Z,100809.00
2022-08-25T03:55:47.173Z,100811.44
2022-08-25T03:58:14.399Z,100808.25
2022-08-25T04:00:42.169Z,100802.03
2022-08-25T04:03:08.983Z,100804.00
2022-08-25T04:05:35.532Z,100803.91
2022-08-25T04:08:02.332Z,100803.25
2022-08-25T04:10:29.624Z,100803.47
2022-08-25T04:12:56.969Z,100807.91
2022-08-25T04:15:28.585Z,100808.69
2022-08-25T04:17:58.741Z,100801.69
2022-08-25T04:20:25.458Z,100805.81
2022-08-25T04:22:51.970Z,100810.56
2022-08-25T04:25:18.440Z,100815.50
2022-08-25T04:27:45.000Z,100816.00
2022-08-25T04:30:12.131Z,100821.97
2022-08-25T04:32:38.677Z,100820.19
2022-08-25T04:35:05.628Z,100826.91
2022-08-25T04:37:33.322Z,100829.56
2022-08-25T04:39:59.981Z,100817.94
2022-08-25T04:42:26.998Z,100823.97
2022-08-25T04:44:54.483Z,100826.38
2022-08-25T04:47:21.306Z,100817.84
2022-08-25T04:49:47.856Z,100820.03
2022-08-25T04:52:14.817Z,100819.16
2022-08-25T04:54:42.047Z,100829.03
2022-08-25T04:57:08.625Z,100828.31
2022-08-25T04:59:35.181Z,100822.59
2022-08-25T05:02:03.216Z,100815.75
2022-08-25T05:04:31.090Z,100818.03
2022-08-25T05:06:58.572Z,100818.03
2022-08-25T05:09:26.584Z,100818.50
2022-08-25T05:11:54.646Z,100818.19
2022-08-25T05:14:25.682Z,100817.44
2022-08-25T05:16:53.308Z,100815.88
2022-08-25T05:19:20.013Z,100820.72
2022-08-25T05:21:46.536Z,100815.03
2022-08-25T05:24:13.000Z,100811.00
2022-08-25T05:26:39.729Z,100813.72
2022-08-25T05:29:06.389Z,100813.53
2022-08-25T05:31:33.414Z,100805.75
2022-08-25T05:34:00.459Z,100813.38
2022-08-25T05:36:29.486Z,100813.53
2022-08-25T05:38:55.972Z,100803.75
2022-08-25T05:41:27.584Z,100804.13
2022-08-25T05:43:54.648Z,100798.91
2022-08-25T05:46:21.927Z,100799.47
2022-08-25T05:48:49.304Z,100793.00
2022-08-25T05:51:16.506Z,100787.19
2022-08-25T05:53:45.875Z,100789.53
2022-08-25T05:56:13.970Z,100791.22
2022-08-25T05:58:41.923Z,100792.81
2022-08-25T06:01:28.201Z,100792.41
2022-08-25T06:03:55.058Z,100792.47
2022-08-25T06:06:23.395Z,100784.81
2022-08-25T06:08:50.527Z,100784.81
2022-08-25T06:11:17.292Z,100789.31
2022-08-25T06:13:43.871Z,100784.00
2022-08-25T06:16:10.455Z,100782.75
2022-08-25T06:18:37.135Z,100779.16
2022-08-25T06:21:12.835Z,100778.25
2022-08-25T06:23:40.020Z,100774.78
2022-08-25T06:26:07.432Z,100769.25
2022-08-25T06:28:33.956Z,100761.00
2022-08-25T06:31:01.812Z,100772.88
2022-08-25T06:33:28.378Z,100763.50
2022-08-25T06:35:57.118Z,100774.16
2022-08-25T06:38:24.320Z,100773.41
2022-08-25T06:40:54.353Z,100773.94
2022-08-25T06:43:21.819Z,100764.84
2022-08-25T06:45:48.725Z,100768.59
2022-08-25T06:48:15.901Z,100779.22
2022-08-25T06:50:43.249Z,100774.66
2022-08-25T06:53:10.107Z,100764.94
2022-08-25T06:55:36.864Z,100762.44
2022-08-25T06:58:04.956Z,100765.28
2022-08-25T07:00:32.801Z,100774.13
2022-08-25T07:03:01.382Z,100772.84
2022-08-25T07:05:42.625Z,100773.06
2022-08-25T07:08:11.744Z,100764.81
2022-08-25T07:10:38.409Z,100769.75
2022-08-25T07:13:04.852Z,100760.72
2022-08-25T07:15:31.338Z,100764.53
2022-08-25T07:17:58.146Z,100769.97
2022-08-25T07:22:56.112Z,100772.47
2022-08-25T07:25:24.214Z,100763.66
2022-08-25T07:27:51.016Z,100760.28
2022-08-25T07:30:18.700Z,100754.56
2022-08-25T07:32:45.477Z,100759.81
2022-08-25T07:35:15.353Z,100757.81
2022-08-25T07:37:55.685Z,100758.63
2022-08-25T07:40:29.880Z,100758.22
2022-08-25T07:42:59.808Z,100759.56
2022-08-25T07:45:30.616Z,100758.78
2022-08-25T07:48:04.636Z,100760.50
2022-08-25T07:50:31.832Z,100753.72
2022-08-25T07:52:58.729Z,100752.03
2022-08-25T07:55:27.241Z,100748.53
2022-08-25T07:57:57.100Z,100749.88
2022-08-25T08:00:27.720Z,100762.41
2022-08-25T08:02:54.659Z,100757.09
2022-08-25T08:05:21.316Z,100758.31
2022-08-25T08:07:50.856Z,100766.38
2022-08-25T08:13:07.112Z,100768.69
2022-08-25T08:15:34.960Z,100773.81
2022-08-25T08:18:01.992Z,100764.34
2022-08-25T08:20:32.074Z,100772.63
2022-08-25T08:23:09.441Z,100769.13
2022-08-25T08:25:36.012Z,100765.84
2022-08-25T08:28:02.958Z,100760.75
2022-08-25T08:30:29.525Z,100762.63
2022-08-25T08:33:12.820Z,100761.91
2022-08-25T08:35:43.102Z,100766.47
2022-08-25T08:38:16.034Z,100772.25
2022-08-25T08:41:16.987Z,100769.03
2022-08-25T08:43:59.635Z,100779.75
2022-08-25T08:46:38.273Z,100772.22
2022-08-25T08:49:36.174Z,100770.13
2022-08-25T08:52:04.366Z,100775.69
2022-08-25T08:54:36.975Z,100769.66
2022-08-25T08:57:17.637Z,100777.06
2022-08-25T08:59:56.759Z,100765.09
2022-08-25T09:02:51.382Z,100753.88
2022-08-25T09:05:21.112Z,100754.97
2022-08-25T09:08:04.969Z,100755.63
2022-08-25T09:10:59.787Z,100751.41
2022-08-25T09:13:44.730Z,100755.66
2022-08-25T09:17:06.255Z,100750.16
2022-08-25T09:19:54.534Z,100744.38
2022-08-25T09:22:47.840Z,100739.44
2022-08-25T09:25:34.590Z,100738.00
2022-08-25T09:28:28.530Z,100744.81
2022-08-25T09:31:04.395Z,100743.19
2022-08-25T09:33:35.575Z,100738.09
2022-08-25T09:36:06.412Z,100738.38
2022-08-25T09:38:35.684Z,100732.50
2022-08-25T09:41:03.019Z,100735.84
2022-08-25T09:43:35.650Z,100731.41
2022-08-25T09:46:20.730Z,100729.72
2022-08-25T09:48:55.718Z,100729.88
2022-08-25T09:51:37.998Z,100715.69
2022-08-25T09:54:13.859Z,100718.59
2022-08-25T09:56:57.415Z,100724.06
2022-08-25T09:59:34.973Z,100729.34
2022-08-25T10:02:22.022Z,100716.38
2022-08-25T10:04:48.690Z,100714.69
2022-08-25T10:07:26.755Z,100712.88
2022-08-25T10:09:56.923Z,100705.94
2022-08-25T10:12:33.492Z,100707.75
2022-08-25T10:15:00.015Z,100700.72
2022-08-25T10:17:33.662Z,100693.81
2022-08-25T10:20:20.323Z,100692.25
2022-08-25T10:22:50.458Z,100695.84
2022-08-25T10:25:26.833Z,100685.47
2022-08-25T10:28:12.471Z,100681.13
2022-08-25T10:30:59.989Z,100686.41
2022-08-25T10:33:45.562Z,100677.50
2022-08-25T10:36:23.048Z,100674.03
2022-08-25T10:38:56.135Z,100671.63
2022-08-25T10:41:28.537Z,100659.97
2022-08-25T10:44:51.544Z,100664.38
2022-08-25T10:47:55.185Z,100660.88
2022-08-25T10:50:31.116Z,100649.28
2022-08-25T10:53:30.029Z,100645.03
2022-08-25T10:56:21.318Z,100640.72
2022-08-25T10:58:54.468Z,100634.56
2022-08-25T11:01:43.739Z,100631.00
2022-08-25T11:04:26.241Z,100627.44
2022-08-25T11:07:09.395Z,100629.41
2022-08-25T11:09:42.697Z,100627.56
2022-08-25T11:12:14.945Z,100628.44
2022-08-25T11:14:57.076Z,100614.34
2022-08-25T11:17:46.689Z,100614.28
2022-08-25T11:20:26.833Z,100601.91
2022-08-25T11:23:24.191Z,100609.03
2022-08-25T11:26:00.419Z,100612.75
2022-08-25T11:28:31.356Z,100600.28
2022-08-25T11:31:00.634Z,100604.47
2022-08-25T11:33:30.430Z,100606.28
2022-08-25T11:36:05.933Z,100600.22
2022-08-25T11:38:52.040Z,100593.13
2022-08-25T11:41:47.581Z,100593.03
2022-08-25T11:44:38.478Z,100586.03
2022-08-25T11:47:29.321Z,100580.84
2022-08-25T11:50:21.903Z,100578.22
2022-08-25T11:53:50.862Z,100574.66
2022-08-25T11:56:36.939Z,100584.50
2022-08-25T11:59:07.565Z,100582.75
2022-08-25T12:01:40.261Z,100567.56
2022-08-25T12:04:31.059Z,100577.41
2022-08-25T12:07:06.286Z,100566.84
2022-08-25T12:09:54.546Z,100571.25
2022-08-25T12:12:43.932Z,100574.78
2022-08-25T12:15:32.186Z,100578.34
2022-08-25T12:18:23.072Z,100571.38
2022-08-25T12:20:56.249Z,100574.91
2022-08-25T12:23:37.716Z,100575.72
2022-08-25T12:26:19.020Z,100569.50
2022-08-25T12:28:57.078Z,100566.81
2022-08-25T12:32:06.980Z,100565.03
2022-08-25T12:34:38.518Z,100561.41
2022-08-25T12:37:13.253Z,100557.00
2022-08-25T12:39:44.840Z,100548.16
2022-08-25T12:42:28.385Z,100553.50
2022-08-25T12:45:19.645Z,100547.38
2022-08-25T12:47:48.924Z,100552.75
2022-08-25T12:50:41.838Z,100540.28
2022-08-25T12:53:12.334Z,100542.09
2022-08-25T12:55:46.534Z,100537.69
2022-08-25T12:58:13.093Z,100531.53
2022-08-25T13:00:52.446Z,100535.91
2022-08-25T13:04:04.344Z,100522.59
2022-08-25T13:06:38.616Z,100526.16
2022-08-25T13:09:24.382Z,100528.81
2022-08-25T13:12:08.151Z,100524.41
2022-08-25T13:14:40.783Z,100534.16
2022-08-25T13:17:09.586Z,100525.31
2022-08-25T13:19:37.306Z,100532.41
2022-08-25T13:22:16.579Z,100528.00
2022-08-25T13:24:47.624Z,100526.22
2022-08-25T13:27:26.570Z,100516.44
2022-08-25T13:29:58.010Z,100519.13
2022-08-25T13:32:35.610Z,100519.13
2022-08-25T13:35:20.056Z,100514.69
2022-08-25T13:37:47.507Z,100509.38
2022-08-25T13:40:27.877Z,100504.94
2022-08-25T13:43:06.612Z,100511.09
2022-08-25T13:45:40.935Z,100495.06
2022-08-25T13:48:20.889Z,100491.56
2022-08-25T13:50:52.731Z,100494.22
2022-08-25T13:53:25.566Z,100495.16
2022-08-25T13:55:57.581Z,100489.84
2022-08-25T13:58:39.240Z,100481.91
2022-08-25T14:01:48.802Z,100473.91
2022-08-25T14:04:29.528Z,100473.00
2022-08-25T14:07:13.262Z,100470.34
2022-08-25T14:09:49.777Z,100471.25
2022-08-25T14:12:39.857Z,100473.03
2022-08-25T14:15:09.285Z,100473.91
2022-08-25T14:17:40.235Z,100466.81
2022-08-25T14:20:18.320Z,100468.53
2022-08-25T14:22:44.802Z,100472.94
2022-08-25T14:25:11.381Z,100465.00
2022-08-25T14:27:56.929Z,100468.56
2022-08-25T14:30:29.412Z,100465.84
2022-08-25T14:32:56.957Z,100460.53
2022-08-25T14:35:23.485Z,100463.16
2022-08-25T14:37:50.214Z,100457.88
2022-08-25T14:40:19.963Z,100457.88
2022-08-25T14:42:47.762Z,100457.91
2022-08-25T14:45:15.854Z,100449.91
2022-08-25T14:47:46.133Z,100444.59
2022-08-25T14:50:20.018Z,100444.59
2022-08-25T14:52:48.253Z,100448.16
2022-08-25T14:55:31.813Z,100443.75
2022-08-25T14:57:59.317Z,100442.81
2022-08-25T15:00:26.064Z,100445.50
2022-08-25T15:02:52.966Z,100441.09
2022-08-25T15:05:29.125Z,100438.44
2022-08-25T15:08:16.432Z,100432.22
2022-08-25T15:10:43.282Z,100436.63
2022-08-25T15:13:10.303Z,100434.00
2022-08-25T15:15:52.163Z,100430.47
2022-08-25T15:18:20.712Z,100424.22
2022-08-25T15:20:47.354Z,100423.34
2022-08-25T15:23:19.340Z,100420.69
2022-08-25T15:25:48.956Z,100425.13
2022-08-25T15:28:22.341Z,100410.94
2022-08-25T15:30:49.798Z,100413.59
2022-08-25T15:33:17.323Z,100409.13
2022-08-25T15:35:44.263Z,100411.81
2022-08-25T15:38:12.288Z,100400.31
2022-08-25T15:40:39.745Z,100404.72
2022-08-25T15:43:07.022Z,100396.75
2022-08-25T15:45:35.964Z,100408.25
2022-08-25T15:48:03.479Z,100399.41
2022-08-25T15:50:30.090Z,100401.19
2022-08-25T15:52:56.654Z,100403.84
2022-08-25T15:55:23.437Z,100404.72
2022-08-25T15:57:50.300Z,100397.66
2022-08-25T16:00:18.028Z,100393.25
2022-08-25T16:02:45.609Z,100394.09
2022-08-25T16:05:13.687Z,100392.31
2022-08-25T16:07:42.904Z,100397.63
2022-08-25T16:10:13.059Z,100389.66
2022-08-25T16:12:40.043Z,100396.72
2022-08-25T16:15:09.804Z,100392.31
2022-08-25T16:17:38.613Z,100389.66
2022-08-25T16:20:07.889Z,100386.09
2022-08-25T16:22:40.246Z,100387.84
2022-08-25T16:25:07.273Z,100388.72
2022-08-25T16:27:38.617Z,100373.72
2022-08-25T16:30:07.141Z,100378.13
2022-08-25T16:32:34.687Z,100374.59
2022-08-25T16:35:02.997Z,100375.50
2022-08-25T16:37:29.778Z,100371.94
2022-08-25T16:39:57.289Z,100376.38
2022-08-25T16:42:24.196Z,100369.28
2022-08-25T16:44:53.948Z,100359.56
2022-08-25T16:47:25.119Z,100358.63
2022-08-25T16:49:53.602Z,100359.53
2022-08-25T16:52:38.741Z,100356.88
2022-08-25T16:55:13.760Z,100356.88
2022-08-25T16:57:45.289Z,100349.78
2022-08-25T17:00:21.877Z,100348.94
2022-08-25T17:02:49.271Z,100350.66
2022-08-25T17:05:16.501Z,100346.25
2022-08-25T17:08:04.728Z,100346.25
2022-08-25T17:10:34.809Z,100341.75
2022-08-25T17:13:01.257Z,100352.38
2022-08-25T17:15:28.090Z,100338.22
2022-08-25T17:17:54.536Z,100341.75
2022-08-25T17:20:21.082Z,100336.44
2022-08-25T17:22:48.607Z,100333.78
2022-08-25T17:25:15.180Z,100344.38
2022-08-25T17:27:41.632Z,100346.13
2022-08-25T17:30:09.850Z,100342.53
2022-08-25T17:32:36.371Z,100340.78
2022-08-25T17:35:04.401Z,100342.50
2022-08-25T17:37:32.534Z,100340.72
2022-08-25T17:40:03.149Z,100341.59
2022-08-25T17:42:31.565Z,100337.13
2022-08-25T17:44:58.344Z,100337.09
2022-08-25T17:47:26.866Z,100341.47
2022-08-25T17:49:53.983Z,100338.78
2022-08-25T17:52:24.996Z,100335.25
2022-08-25T17:54:52.617Z,100337.84
2022-08-25T17:57:19.765Z,100344.00
2022-08-25T17:59:47.817Z,100341.31
2022-08-25T18:02:14.328Z,100340.38
2022-08-25T18:04:41.381Z,100339.41
2022-08-25T18:07:07.906Z,100343.75
2022-08-25T18:09:34.444Z,100356.06
2022-08-25T18:12:01.003Z,100349.81
2022-08-25T18:14:27.570Z,100360.31
2022-08-25T18:16:54.110Z,100348.78
2022-08-25T18:19:21.008Z,100358.44
2022-08-25T18:21:47.789Z,100356.69
2022-08-25T18:24:14.396Z,100366.38
2022-08-25T18:26:41.653Z,100365.47
2022-08-25T18:29:12.069Z,100371.50
2022-08-25T18:31:40.903Z,100368.38
2022-08-25T18:34:10.937Z,100368.81
2022-08-25T18:36:39.107Z,100374.66
2022-08-25T18:39:25.060Z,100381.34
2022-08-25T18:41:51.703Z,100375.72
2022-08-25T18:44:18.236Z,100381.72
2022-08-25T18:46:45.601Z,100380.72
2022-08-25T18:49:15.817Z,100392.16
2022-08-25T18:51:44.336Z,100395.59
2022-08-25T18:54:22.376Z,100394.72
2022-08-25T18:56:50.054Z,100398.13
2022-08-25T18:59:16.552Z,100398.03
2022-08-25T19:01:44.542Z,100400.47
2022-08-25T19:04:13.481Z,100396.91
2022-08-25T19:06:39.937Z,100398.56
2022-08-25T19:09:10.934Z,100394.94
2022-08-25T19:11:38.254Z,100400.28
2022-08-25T19:14:12.075Z,100400.28
2022-08-25T19:16:41.095Z,100398.47
2022-08-25T19:19:13.167Z,100403.75
2022-08-25T19:21:42.865Z,100401.94
2022-08-25T19:24:11.884Z,100407.34
2022-08-25T19:26:39.351Z,100402.91
2022-08-25T19:29:09.473Z,100405.56
2022-08-25T19:31:37.363Z,100409.00
2022-08-25T19:34:07.554Z,100414.13
2022-08-25T19:36:34.238Z,100416.84
2022-08-25T19:39:01.644Z,100421.34
2022-08-25T19:41:31.183Z,100414.31
2022-08-25T19:43:58.227Z,100418.69
2022-08-25T19:46:33.030Z,100415.22
2022-08-25T19:49:09.096Z,100421.34
2022-08-25T19:51:43.998Z,100428.41
2022-08-25T19:54:15.653Z,100428.38
2022-08-25T19:56:53.860Z,100432.78
2022-08-25T19:59:40.532Z,100430.13
2022-08-25T20:02:15.037Z,100437.09
2022-08-25T20:04:42.388Z,100435.22
2022-08-25T20:07:08.892Z,100436.94
2022-08-25T20:09:40.946Z,100440.50
2022-08-25T20:12:10.243Z,100449.34
2022-08-25T20:14:37.156Z,100446.75
2022-08-25T20:17:23.275Z,100458.25
2022-08-25T20:19:52.454Z,100459.16
2022-08-25T20:22:20.680Z,100466.25
2022-08-25T20:24:57.688Z,100456.53
2022-08-25T20:27:38.930Z,100463.44
2022-08-25T20:30:10.064Z,100462.59
2022-08-25T20:32:36.806Z,100461.72
2022-08-25T20:35:06.302Z,100462.59
2022-08-25T20:37:36.237Z,100462.63
2022-08-25T20:40:04.774Z,100470.50
2022-08-25T20:42:31.346Z,100460.88
2022-08-25T20:44:57.898Z,100468.72
2022-08-25T20:47:24.939Z,100469.63
2022-08-25T20:49:51.673Z,100468.72
2022-08-25T20:52:19.647Z,100474.84
2022-08-25T20:54:50.407Z,100476.47
2022-08-25T20:57:24.472Z,100484.34
2022-08-25T20:59:53.087Z,100483.47
2022-08-25T21:02:19.846Z,100484.31
2022-08-25T21:04:49.896Z,100481.66
2022-08-25T21:07:17.349Z,100484.31
2022-08-25T21:09:43.997Z,100491.34
2022-08-25T21:12:10.545Z,100482.44
2022-08-25T21:14:38.944Z,100489.53
2022-08-25T21:17:05.578Z,100485.03
2022-08-25T21:19:33.464Z,100483.19
2022-08-25T21:22:00.340Z,100484.16
2022-08-25T21:24:27.890Z,100480.53
2022-08-25T21:26:56.635Z,100480.50
2022-08-25T21:29:25.956Z,100476.97
2022-08-25T21:31:56.462Z,100487.47
2022-08-25T21:34:23.097Z,100486.69
2022-08-25T21:36:49.625Z,100490.25
2022-08-25T21:39:16.222Z,100490.25
2022-08-25T21:41:45.160Z,100488.59
2022-08-25T21:44:12.825Z,100493.03
2022-08-25T21:46:41.250Z,100494.84
2022-08-25T21:49:08.543Z,100489.63
2022-08-25T21:51:42.455Z,100489.56
2022-08-25T21:54:15.809Z,100487.81
2022-08-25T21:56:55.431Z,100494.84
2022-08-25T21:59:26.821Z,100499.16
2022-08-25T22:02:01.640Z,100494.59
2022-08-25T22:04:29.010Z,100496.38
2022-08-25T22:06:55.928Z,100498.06
2022-08-25T22:09:24.948Z,100496.31
2022-08-25T22:11:53.198Z,100489.19
2022-08-25T22:14:23.363Z,100499.78
2022-08-25T22:16:51.933Z,100498.75
2022-08-25T22:19:18.745Z,100502.13
2022-08-25T22:21:45.289Z,100505.44
2022-08-25T22:24:11.920Z,100501.00
2022-08-25T22:26:39.181Z,100502.75
2022-08-25T22:29:06.559Z,100494.00
2022-08-25T22:31:33.532Z,100496.50
2022-08-25T22:34:00.756Z,100498.03
2022-08-25T22:36:34.967Z,100500.50
2022-08-25T22:39:02.741Z,100496.63
2022-08-25T22:41:30.114Z,100504.47
2022-08-25T22:43:57.632Z,100495.53
2022-08-25T22:46:26.476Z,100498.03
2022-08-25T22:48:55.589Z,100502.34
2022-08-25T22:51:25.223Z,100507.84
2022-08-25T22:53:52.315Z,100502.09
2022-08-25T22:56:29.631Z,100499.34
2022-08-25T22:59:03.108Z,100508.00
2022-08-25T23:01:30.096Z,100498.59
2022-08-25T23:03:56.953Z,100507.59
2022-08-25T23:06:25.215Z,100505.81
2022-08-25T23:08:54.101Z,100503.28
2022-08-25T23:11:21.941Z,100500.78
2022-08-25T23:13:48.912Z,100497.91
2022-08-25T23:16:15.844Z,100504.59
2022-08-25T23:18:44.830Z,100513.84
2022-08-25T23:21:35.281Z,100510.06
2022-08-25T23:24:07.660Z,100506.41
2022-08-25T23:26:34.722Z,100511.06
2022-08-25T23:29:01.200Z,100494.75
2022-08-25T23:31:30.031Z,100502.56
2022-08-25T23:33:58.028Z,100508.50
2022-08-25T23:36:25.159Z,100504.53
2022-08-25T23:38:52.088Z,100498.91
2022-08-25T23:41:23.175Z,100498.19
2022-08-25T23:43:50.602Z,100495.16
2022-08-25T23:46:20.375Z,100495.28
2022-08-25T23:48:47.887Z,100507.56
2022-08-25T23:51:27.009Z,100501.53
2022-08-25T23:53:55.500Z,100495.91
2022-08-25T23:56:23.278Z,100497.72
2022-08-25T23:58:51.212Z,100497.63
